Impacts METAR Board
IDs:

KIAH - Houston/Bush Intl, TX, US

Updated at: 0500 UTC 10 Dec 2018
Potential Impact None Slight Moderate High
Time 09/17Z 09/18Z 09/19Z 09/20Z 09/21Z 09/22Z 09/23Z 10/00Z 10/01Z 10/02Z 10/03Z 10/04Z 10/05Z
Temp46 47 47 48 47 47 47 47 47 47 47 47 44
Dewpt41 42 42 42 42 41 41 42 42 42 42 42 41
Altim30.31 30.29 30.28 30.27 30.27 30.28 30.29 30.30 30.32 30.33 30.34 30.35 30.36
VIS10 10 10 10 10 10 10 10 10 10 10 10 10
CIG14 14 14 15 16 17 17 18 21 23 28 -- --
CoverOVCOVCOVCOVCOVCOVCOVCOVCOVCOVCOVCSCTFEW
FltCatMVFRMVFRMVFRMVFRMVFRMVFRMVFRMVFRMVFRMVFRMVFRVFRVFR
WX--------------------------
WDir340320310300320350330340330310320290280
WSpd10 8 10 8 9 10 8 7 4 5 5 5 5
WGst-- -- -- -- -- -- -- -- -- -- -- -- --
Raw hourly METARs
KIAH 091653Z 34010KT 10SM OVC014 08/05 A3031 RMK AO2 SLP264 T00780050
KIAH 091753Z 32008KT 10SM OVC014 08/06 A3029 RMK AO2 SLP258 T00830056 10083 20061 50002
KIAH 091853Z 31010KT 10SM OVC014 08/06 A3028 RMK AO2 SLP252 T00830056
KIAH 091953Z 30008KT 10SM OVC015 09/06 A3027 RMK AO2 SLP249 T00890056
KIAH 092053Z 32009KT 10SM OVC016 08/06 A3027 RMK AO2 SLP251 T00830056 55007
KIAH 092153Z 35010KT 10SM OVC017 08/05 A3028 RMK AO2 SLP253 T00830050
KIAH 092253Z 33008KT 10SM OVC017 08/05 A3029 RMK AO2 SLP258 T00830050
KIAH 092353Z 34007KT 10SM OVC018 08/06 A3030 RMK AO2 SLP262 T00830056 10089 20083 53011
KIAH 100053Z 33004KT 10SM OVC021 08/06 A3032 RMK AO2 SLP266 T00830056
KIAH 100153Z 31005KT 10SM OVC023 08/06 A3033 RMK AO2 SLP272 T00830056
KIAH 100253Z 32005KT 10SM OVC028 08/06 A3034 RMK AO2 SLP273 T00830056 51011
KIAH 100353Z 29005KT 10SM SCT029 08/06 A3035 RMK AO2 SLP278 T00830056
KIAH 100453Z 28005KT 10SM FEW030 07/05 A3036 RMK AO2 SLP281 T00670050



Page loaded:  05:16 UTC  |   09:16 PM Pacific  |   10:16 PM Mountain  |   11:16 PM Central  |   12:16 AM Eastern

 

ADVISORIES

FORECASTS

FORECASTS

OBSERVATIONS

USER TOOLS

ABOUT US